createdAt,value
2023-01-07T00:01:22.559Z,20.90
2023-01-07T00:03:49.968Z,16.55
2023-01-07T00:06:20.962Z,24.80
2023-01-07T00:08:48.327Z,12.35
2023-01-07T00:11:16.603Z,16.60
2023-01-07T00:13:43.903Z,15.65
2023-01-07T00:16:12.169Z,18.92
2023-01-07T00:18:39.143Z,21.27
2023-01-07T00:21:06.894Z,23.63
2023-01-07T00:23:34.016Z,17.13
2023-01-07T00:26:01.796Z,16.00
2023-01-07T00:28:28.332Z,15.93
2023-01-07T00:31:01.356Z,13.82
2023-01-07T00:33:31.154Z,16.92
2023-01-07T00:36:02.405Z,16.05
2023-01-07T00:38:29.272Z,13.05
2023-01-07T00:40:55.777Z,13.07
2023-01-07T00:43:22.279Z,17.88
2023-01-07T00:45:48.730Z,15.73
2023-01-07T00:48:15.213Z,14.32
2023-01-07T00:50:41.692Z,20.23
2023-01-07T00:53:09.778Z,13.65
2023-01-07T00:55:36.276Z,18.23
2023-01-07T00:58:02.822Z,23.77
2023-01-07T01:00:29.313Z,10.82
2023-01-07T01:02:56.217Z,19.63
2023-01-07T01:05:22.882Z,12.88
2023-01-07T01:07:49.393Z,13.10
2023-01-07T01:10:18.010Z,10.68
2023-01-07T01:12:44.577Z,14.10
2023-01-07T01:15:12.824Z,17.42
2023-01-07T01:17:39.368Z,13.88
2023-01-07T01:20:06.295Z,18.08
2023-01-07T01:22:33.021Z,18.05
2023-01-07T01:24:59.573Z,14.55
2023-01-07T01:27:26.088Z,17.63
2023-01-07T01:29:52.556Z,16.50
2023-01-07T01:32:19.014Z,21.08
2023-01-07T01:34:45.667Z,17.90
2023-01-07T01:37:12.148Z,17.80
2023-01-07T01:39:38.604Z,15.00
2023-01-07T01:42:05.155Z,16.88
2023-01-07T01:44:46.999Z,20.75
2023-01-07T01:47:16.045Z,31.63
2023-01-07T01:49:46.534Z,13.68
2023-01-07T01:52:14.232Z,12.65
2023-01-07T01:54:42.193Z,18.70
2023-01-07T01:57:08.999Z,13.90
2023-01-07T01:59:38.099Z,14.57
2023-01-07T02:02:05.724Z,22.20
2023-01-07T02:04:33.163Z,18.65
2023-01-07T02:07:02.970Z,24.20
2023-01-07T02:09:29.574Z,14.23
2023-01-07T02:12:11.816Z,14.77
2023-01-07T02:14:38.273Z,10.85
2023-01-07T02:17:10.740Z,18.20
2023-01-07T02:19:40.301Z,14.82
2023-01-07T02:22:06.733Z,20.10
2023-01-07T02:24:39.064Z,22.20
2023-01-07T02:27:05.520Z,22.88
2023-01-07T02:29:47.476Z,15.02
2023-01-07T02:32:19.286Z,18.88
2023-01-07T02:34:58.180Z,16.17
2023-01-07T02:37:32.143Z,14.65
2023-01-07T02:40:01.848Z,20.30
2023-01-07T02:42:43.041Z,17.70
2023-01-07T02:45:23.959Z,18.52
2023-01-07T02:47:58.396Z,20.45
2023-01-07T02:50:24.988Z,18.42
2023-01-07T02:52:51.448Z,16.42
2023-01-07T02:55:21.629Z,18.50
2023-01-07T02:57:51.069Z,26.88
2023-01-07T03:00:24.290Z,18.50
2023-01-07T03:02:59.446Z,9.02
2023-01-07T03:05:28.736Z,16.33
2023-01-07T03:08:00.952Z,25.23
2023-01-07T03:10:47.715Z,17.13
2023-01-07T03:13:19.546Z,24.33
2023-01-07T03:15:54.394Z,17.17
2023-01-07T03:18:31.036Z,17.40
2023-01-07T03:20:59.931Z,21.65
2023-01-07T03:23:27.684Z,18.38
2023-01-07T03:25:55.543Z,16.30
2023-01-07T03:28:27.263Z,14.57
2023-01-07T03:30:55.668Z,23.30
2023-01-07T03:33:31.627Z,17.85
2023-01-07T03:36:00.091Z,15.32
2023-01-07T03:38:27.300Z,18.38
2023-01-07T03:40:53.907Z,16.58
2023-01-07T03:43:22.068Z,18.95
2023-01-07T03:45:49.312Z,27.02
2023-01-07T03:48:15.985Z,17.45
2023-01-07T03:50:42.657Z,24.10
2023-01-07T03:53:09.228Z,17.48
2023-01-07T03:55:35.828Z,17.63
2023-01-07T03:58:02.338Z,16.90
2023-01-07T04:00:28.841Z,21.70
2023-01-07T04:02:55.431Z,20.80
2023-01-07T04:05:21.916Z,14.88
2023-01-07T04:07:48.373Z,23.73
2023-01-07T04:10:14.882Z,21.98
2023-01-07T04:12:41.338Z,19.25
2023-01-07T04:15:08.024Z,21.27
2023-01-07T04:17:34.494Z,14.50
2023-01-07T04:20:01.028Z,18.33
2023-01-07T04:22:27.516Z,23.63
2023-01-07T04:24:54.064Z,26.98
2023-01-07T04:27:20.553Z,24.88
2023-01-07T04:29:47.107Z,17.45
2023-01-07T04:32:13.631Z,19.05
2023-01-07T04:34:40.091Z,19.55
2023-01-07T04:37:06.811Z,17.48
2023-01-07T04:39:33.281Z,20.02
2023-01-07T04:41:59.728Z,18.65
2023-01-07T04:44:26.216Z,18.80
2023-01-07T04:46:52.688Z,21.35
2023-01-07T04:49:20.171Z,13.90
2023-01-07T04:51:46.693Z,19.70
2023-01-07T04:54:13.208Z,19.52
2023-01-07T04:56:39.655Z,17.90
2023-01-07T04:59:06.150Z,26.83
2023-01-07T05:01:32.843Z,15.13
2023-01-07T05:03:59.538Z,16.13
2023-01-07T05:06:26.090Z,13.63
2023-01-07T05:08:54.183Z,15.77
2023-01-07T05:11:21.936Z,17.00
2023-01-07T05:13:49.468Z,21.35
2023-01-07T05:16:16.262Z,19.58
2023-01-07T05:18:42.978Z,9.52
2023-01-07T05:21:10.761Z,19.58
2023-01-07T05:23:37.238Z,13.85
2023-01-07T05:26:04.101Z,20.00
2023-01-07T05:28:30.573Z,14.57
2023-01-07T05:30:57.087Z,12.77
2023-01-07T05:33:23.597Z,11.27
2023-01-07T05:35:50.102Z,16.23
2023-01-07T05:38:16.608Z,9.45
2023-01-07T05:40:43.336Z,11.43
2023-01-07T05:43:09.995Z,9.32
2023-01-07T05:45:36.456Z,15.20
2023-01-07T05:48:03.413Z,11.73
2023-01-07T05:50:29.907Z,10.80
2023-01-07T05:52:56.590Z,17.48
2023-01-07T05:55:23.097Z,12.50
2023-01-07T05:57:49.579Z,10.38
2023-01-07T06:00:16.336Z,13.13
2023-01-07T06:02:42.870Z,13.32
2023-01-07T06:05:09.562Z,12.93
2023-01-07T06:07:36.183Z,13.18
2023-01-07T06:10:03.310Z,13.80
2023-01-07T06:12:30.510Z,11.38
2023-01-07T06:14:56.999Z,13.60
2023-01-07T06:17:23.457Z,14.82
2023-01-07T06:19:50.321Z,14.43
2023-01-07T06:22:16.795Z,9.35
2023-01-07T06:24:43.432Z,14.35
2023-01-07T06:27:10.527Z,12.68
2023-01-07T06:29:37.035Z,10.35
2023-01-07T06:32:03.552Z,12.32
2023-01-07T06:34:30.040Z,17.42
2023-01-07T06:36:56.525Z,8.63
2023-01-07T06:39:23.059Z,11.32
2023-01-07T06:41:49.540Z,13.85
2023-01-07T06:44:16.012Z,15.55
2023-01-07T06:46:42.547Z,8.55
2023-01-07T06:49:09.215Z,8.77
2023-01-07T06:51:35.681Z,13.35
2023-01-07T06:54:02.207Z,12.30
2023-01-07T06:56:28.743Z,11.82
2023-01-07T06:58:55.188Z,10.55
2023-01-07T07:01:21.840Z,10.45
2023-01-07T07:03:48.562Z,9.73
2023-01-07T07:06:15.033Z,8.60
2023-01-07T07:08:41.504Z,9.77
2023-01-07T07:11:08.072Z,10.05
2023-01-07T07:13:34.556Z,11.00
2023-01-07T07:16:01.145Z,7.00
2023-01-07T07:18:27.703Z,12.52
2023-01-07T07:20:54.208Z,5.47
2023-01-07T07:23:20.706Z,11.88
2023-01-07T07:25:47.246Z,6.13
2023-01-07T07:28:13.688Z,7.10
2023-01-07T07:30:47.433Z,8.43
2023-01-07T07:33:15.324Z,10.30
2023-01-07T07:35:42.250Z,9.45
2023-01-07T07:38:09.014Z,10.52
2023-01-07T07:40:35.542Z,6.90
2023-01-07T07:43:10.493Z,6.72
2023-01-07T07:45:39.331Z,8.05
2023-01-07T07:48:07.431Z,7.20
2023-01-07T07:50:34.273Z,3.97
2023-01-07T07:53:00.751Z,3.33
2023-01-07T07:55:27.250Z,4.97
2023-01-07T07:57:54.345Z,5.80
2023-01-07T08:00:20.896Z,6.82
2023-01-07T08:02:47.382Z,8.13
2023-01-07T08:05:13.884Z,4.10
2023-01-07T08:07:40.358Z,5.53
2023-01-07T08:10:07.292Z,4.75
2023-01-07T08:12:36.661Z,4.15
2023-01-07T08:15:03.650Z,4.88
2023-01-07T08:17:30.129Z,6.43
2023-01-07T08:19:56.596Z,7.57
2023-01-07T08:22:23.091Z,6.63
2023-01-07T08:24:49.579Z,5.43
2023-01-07T08:27:16.079Z,6.70
2023-01-07T08:29:42.536Z,7.05
2023-01-07T08:32:09.278Z,4.82
2023-01-07T08:34:35.741Z,4.75
2023-01-07T08:37:02.299Z,8.85
2023-01-07T08:39:31.412Z,9.30
2023-01-07T08:41:58.489Z,5.28
2023-01-07T08:44:24.940Z,5.18
2023-01-07T08:46:52.322Z,9.43
2023-01-07T08:49:18.835Z,4.32
2023-01-07T08:51:45.351Z,4.90
2023-01-07T08:54:11.846Z,4.60
2023-01-07T08:56:41.147Z,6.63
2023-01-07T08:59:07.648Z,5.45
2023-01-07T09:01:34.503Z,5.28
2023-01-07T09:04:01.021Z,6.53
2023-01-07T09:06:27.503Z,3.05
2023-01-07T09:08:53.972Z,4.32
2023-01-07T09:11:20.439Z,11.75
2023-01-07T09:13:46.974Z,3.85
2023-01-07T09:16:13.614Z,3.03
2023-01-07T09:18:40.095Z,6.57
2023-01-07T09:21:06.770Z,5.47
2023-01-07T09:23:33.525Z,8.48
2023-01-07T09:25:59.970Z,8.27
2023-01-07T09:28:28.846Z,7.97
2023-01-07T09:30:56.889Z,4.18
2023-01-07T09:33:23.527Z,5.70
2023-01-07T09:35:50.007Z,5.75
2023-01-07T09:38:16.516Z,6.88
2023-01-07T09:40:44.029Z,8.95
2023-01-07T09:43:10.451Z,4.97
2023-01-07T09:45:43.193Z,6.10
2023-01-07T09:48:19.409Z,7.03
2023-01-07T09:51:06.985Z,5.15
2023-01-07T09:53:35.828Z,4.93
2023-01-07T09:56:11.107Z,5.85
2023-01-07T09:58:40.078Z,5.78
2023-01-07T10:01:26.831Z,5.88
2023-01-07T10:04:12.061Z,6.15
2023-01-07T10:06:45.890Z,4.47
2023-01-07T10:11:38.723Z,4.63
2023-01-07T10:14:17.327Z,6.13
2023-01-07T10:16:49.859Z,9.52
2023-01-07T10:19:19.440Z,9.15
2023-01-07T10:21:57.652Z,7.25
2023-01-07T10:24:29.240Z,6.05
2023-01-07T10:26:57.840Z,4.90
2023-01-07T10:29:36.119Z,4.07
2023-01-07T10:32:07.354Z,6.15
2023-01-07T10:34:41.755Z,5.45
2023-01-07T10:37:20.285Z,6.97
2023-01-07T10:40:00.314Z,5.55
2023-01-07T10:42:37.842Z,5.32
2023-01-07T10:45:04.326Z,6.13
2023-01-07T10:47:45.855Z,4.90
2023-01-07T10:50:24.632Z,8.90
2023-01-07T10:52:54.241Z,3.35
2023-01-07T10:55:20.713Z,6.28
2023-01-07T10:57:48.152Z,4.18
2023-01-07T11:00:15.770Z,4.15
2023-01-07T11:02:43.948Z,3.67
2023-01-07T11:05:12.902Z,3.63
2023-01-07T11:08:00.373Z,1.88
2023-01-07T11:10:31.888Z,2.92
2023-01-07T11:12:58.384Z,4.55
2023-01-07T11:15:41.024Z,4.57
2023-01-07T11:18:12.526Z,4.20
2023-01-07T11:20:49.864Z,3.45
2023-01-07T11:23:35.095Z,2.13
2023-01-07T11:26:13.485Z,3.88
2023-01-07T11:28:42.065Z,4.43
2023-01-07T11:31:09.032Z,2.85
2023-01-07T11:34:01.679Z,3.67
2023-01-07T11:36:42.205Z,5.00
2023-01-07T11:39:18.037Z,2.30
2023-01-07T11:42:25.913Z,2.90
2023-01-07T11:45:11.092Z,4.38
2023-01-07T11:47:38.474Z,3.28
2023-01-07T11:50:05.155Z,2.95
2023-01-07T11:52:32.157Z,2.67
2023-01-07T11:54:58.740Z,1.58
2023-01-07T11:57:26.326Z,3.55
2023-01-07T12:00:10.574Z,3.15
2023-01-07T12:02:37.136Z,2.67
2023-01-07T12:05:36.125Z,4.15
2023-01-07T12:08:04.437Z,4.82
2023-01-07T12:10:32.921Z,2.80
2023-01-07T12:13:00.477Z,1.48
2023-01-07T12:15:47.092Z,1.80
2023-01-07T12:18:33.315Z,4.13
2023-01-07T12:21:18.303Z,1.80
2023-01-07T12:24:02.940Z,2.05
2023-01-07T12:26:52.101Z,1.27
2023-01-07T12:29:36.156Z,1.50
2023-01-07T12:32:05.660Z,0.57
2023-01-07T12:34:51.348Z,4.72
2023-01-07T12:37:32.109Z,2.67
2023-01-07T12:40:06.933Z,1.98
2023-01-07T12:42:36.814Z,1.85
2023-01-07T12:45:05.750Z,2.08
2023-01-07T12:47:37.783Z,2.13
2023-01-07T12:50:07.442Z,1.15
2023-01-07T12:52:37.090Z,1.35
2023-01-07T12:55:09.132Z,1.70
2023-01-07T12:57:36.889Z,1.20
2023-01-07T13:00:18.905Z,1.83
2023-01-07T13:03:10.215Z,1.75
2023-01-07T13:05:39.208Z,1.98
2023-01-07T13:08:18.728Z,2.03
2023-01-07T13:10:48.475Z,4.35
2023-01-07T13:13:22.896Z,3.00
2023-01-07T13:15:49.626Z,1.00
2023-01-07T13:18:17.202Z,0.50
2023-01-07T13:20:51.758Z,2.30
2023-01-07T13:23:24.140Z,1.38
2023-01-07T13:26:09.267Z,3.75
2023-01-07T13:29:05.146Z,0.70
2023-01-07T13:31:50.161Z,1.25
2023-01-07T13:34:31.994Z,0.60
2023-01-07T13:37:16.931Z,2.15
2023-01-07T13:39:49.649Z,1.23
2023-01-07T13:42:16.111Z,1.25
2023-01-07T13:44:52.315Z,1.98
2023-01-07T13:47:20.721Z,1.27
2023-01-07T13:49:56.996Z,2.08
2023-01-07T13:52:25.332Z,1.70
2023-01-07T13:54:51.768Z,0.93
2023-01-07T13:57:24.002Z,1.55
2023-01-07T13:59:52.747Z,1.73
2023-01-07T14:02:23.803Z,1.30
2023-01-07T14:04:51.814Z,1.50
2023-01-07T14:07:19.423Z,2.53
2023-01-07T14:09:46.348Z,2.50
2023-01-07T14:12:12.800Z,1.40
2023-01-07T14:14:45.940Z,3.65
2023-01-07T14:17:32.402Z,2.15
2023-01-07T14:20:10.901Z,3.00
2023-01-07T14:22:49.461Z,3.47
2023-01-07T14:25:15.953Z,1.92
2023-01-07T14:28:00.877Z,2.05
2023-01-07T14:30:29.837Z,1.50
2023-01-07T14:33:01.005Z,4.72
2023-01-07T14:35:31.649Z,1.90
2023-01-07T14:37:58.260Z,1.25
2023-01-07T14:40:32.940Z,1.25
2023-01-07T14:43:00.257Z,3.63
2023-01-07T14:45:38.836Z,2.00
2023-01-07T14:48:08.065Z,2.15
2023-01-07T14:50:43.838Z,3.35
2023-01-07T14:53:10.322Z,3.45
2023-01-07T14:55:45.604Z,1.88
2023-01-07T14:58:51.196Z,2.67
2023-01-07T15:01:17.817Z,3.10
2023-01-07T15:04:03.067Z,2.20
2023-01-07T15:06:33.947Z,5.68
2023-01-07T15:09:30.184Z,5.03
2023-01-07T15:12:17.671Z,4.70
2023-01-07T15:15:12.213Z,1.75
2023-01-07T15:17:39.409Z,2.30
2023-01-07T15:20:06.423Z,4.95
2023-01-07T15:22:35.818Z,2.95
2023-01-07T15:25:13.041Z,3.70
2023-01-07T15:27:39.533Z,3.28
2023-01-07T15:30:05.980Z,6.32
2023-01-07T15:32:50.504Z,2.28
2023-01-07T15:35:18.514Z,2.00
2023-01-07T15:37:46.184Z,1.90
2023-01-07T15:40:15.768Z,4.40
2023-01-07T15:42:43.059Z,2.42
2023-01-07T15:45:20.820Z,4.10
2023-01-07T15:47:47.572Z,4.60
2023-01-07T15:50:26.408Z,2.42
2023-01-07T15:52:54.663Z,2.67
2023-01-07T15:55:25.952Z,2.35
2023-01-07T15:57:54.223Z,3.88
2023-01-07T16:00:21.088Z,3.47
2023-01-07T16:02:47.689Z,3.45
2023-01-07T16:05:17.142Z,4.07
2023-01-07T16:07:43.614Z,6.78
2023-01-07T16:10:20.778Z,6.18
2023-01-07T16:12:51.754Z,6.78
2023-01-07T16:15:28.735Z,5.10
2023-01-07T16:17:59.336Z,7.05
2023-01-07T16:20:33.517Z,7.20
2023-01-07T16:23:06.209Z,7.72
2023-01-07T16:25:37.388Z,4.90
2023-01-07T16:28:04.560Z,5.28
2023-01-07T16:30:42.908Z,7.43
2023-01-07T16:33:12.758Z,8.85
2023-01-07T16:35:39.287Z,12.25
2023-01-07T16:38:06.068Z,10.65
2023-01-07T16:40:37.040Z,11.50
2023-01-07T16:43:04.642Z,13.48
2023-01-07T16:45:32.617Z,8.82
2023-01-07T16:48:00.135Z,112.70
2023-01-07T16:50:34.855Z,82.05
2023-01-07T16:53:01.685Z,27.45
2023-01-07T16:55:57.673Z,18.13
2023-01-07T16:58:47.829Z,19.00
2023-01-07T17:01:16.554Z,14.90
2023-01-07T17:03:46.243Z,16.95
2023-01-07T17:06:12.983Z,10.05
2023-01-07T17:08:39.757Z,21.60
2023-01-07T17:11:09.371Z,10.68
2023-01-07T17:13:37.774Z,9.00
2023-01-07T17:16:21.777Z,10.27
2023-01-07T17:21:34.951Z,13.32
2023-01-07T17:24:01.447Z,8.20
2023-01-07T17:26:28.578Z,15.07
2023-01-07T17:29:11.527Z,11.25
2023-01-07T17:31:40.921Z,12.82
2023-01-07T17:34:10.382Z,7.78
2023-01-07T17:36:36.892Z,14.05
2023-01-07T17:39:03.695Z,14.45
2023-01-07T17:41:50.824Z,15.10
2023-01-07T17:44:17.299Z,16.60
2023-01-07T17:46:43.803Z,10.30
2023-01-07T17:49:11.200Z,13.73
2023-01-07T17:51:39.269Z,13.93
2023-01-07T17:54:06.861Z,11.73
2023-01-07T17:56:34.098Z,14.48
2023-01-07T17:59:00.655Z,14.38
2023-01-07T18:01:27.212Z,9.73
2023-01-07T18:03:54.614Z,17.20
2023-01-07T18:06:25.253Z,12.93
2023-01-07T18:08:52.412Z,12.00
2023-01-07T18:11:41.934Z,14.00
2023-01-07T18:14:08.495Z,11.68
2023-01-07T18:16:35.152Z,13.30
2023-01-07T18:19:01.676Z,12.65
2023-01-07T18:21:28.176Z,13.13
2023-01-07T18:23:54.673Z,12.52
2023-01-07T18:26:21.502Z,15.48
2023-01-07T18:28:48.368Z,7.63
2023-01-07T18:31:15.338Z,10.95
2023-01-07T18:33:42.121Z,6.68
2023-01-07T18:36:09.594Z,7.53
2023-01-07T18:38:36.124Z,10.20
2023-01-07T18:41:02.672Z,6.20
2023-01-07T18:43:29.197Z,10.25
2023-01-07T18:45:55.733Z,8.30
2023-01-07T18:48:22.235Z,5.55
2023-01-07T18:50:49.520Z,5.03
2023-01-07T18:53:16.684Z,11.98
2023-01-07T18:55:44.115Z,8.32
2023-01-07T18:58:12.104Z,7.60
2023-01-07T19:00:38.612Z,8.30
2023-01-07T19:03:06.564Z,5.55
2023-01-07T19:05:33.034Z,10.18
2023-01-07T19:07:59.521Z,7.15
2023-01-07T19:10:26.698Z,6.10
2023-01-07T19:12:53.166Z,10.20
2023-01-07T19:15:19.787Z,5.82
2023-01-07T19:17:46.280Z,9.02
2023-01-07T19:20:15.076Z,11.38
2023-01-07T19:22:41.676Z,8.95
2023-01-07T19:25:08.800Z,10.18
2023-01-07T19:27:35.295Z,9.20
2023-01-07T19:30:01.906Z,10.18
2023-01-07T19:32:31.219Z,7.50
2023-01-07T19:34:57.679Z,8.35
2023-01-07T19:37:24.217Z,10.00
2023-01-07T19:39:50.682Z,8.00
2023-01-07T19:42:17.150Z,52.20
2023-01-07T19:44:43.972Z,24.65
2023-01-07T19:47:10.494Z,34.80
2023-01-07T19:49:36.980Z,18.95
2023-01-07T19:52:03.515Z,19.50
2023-01-07T19:54:30.018Z,137.95
2023-01-07T19:56:56.495Z,135.10
2023-01-07T19:59:23.000Z,34.25
2023-01-07T20:01:50.160Z,28.55
2023-01-07T20:04:16.925Z,22.85
2023-01-07T20:06:43.552Z,18.35
2023-01-07T20:09:13.187Z,18.48
2023-01-07T20:11:40.560Z,11.65
2023-01-07T20:14:07.795Z,11.95
2023-01-07T20:16:36.481Z,25.52
2023-01-07T20:19:03.297Z,16.73
2023-01-07T20:21:29.815Z,21.23
2023-01-07T20:23:56.383Z,25.63
2023-01-07T20:26:24.399Z,14.00
2023-01-07T20:28:51.213Z,19.10
2023-01-07T20:31:18.798Z,16.77
2023-01-07T20:33:45.511Z,27.00
2023-01-07T20:36:13.676Z,16.63
2023-01-07T20:38:40.576Z,12.45
2023-01-07T20:41:07.735Z,7.82
2023-01-07T20:43:34.647Z,12.82
2023-01-07T20:46:01.895Z,13.52
2023-01-07T20:48:28.647Z,9.35
2023-01-07T20:50:55.329Z,12.32
2023-01-07T20:53:21.910Z,7.95
2023-01-07T20:55:51.529Z,11.65
2023-01-07T20:58:17.977Z,13.85
2023-01-07T21:00:44.562Z,8.80
2023-01-07T21:03:11.122Z,11.70
2023-01-07T21:05:37.876Z,10.95
2023-01-07T21:08:04.381Z,12.02
2023-01-07T21:10:30.827Z,7.47
2023-01-07T21:12:57.287Z,14.90
2023-01-07T21:15:23.790Z,12.15
2023-01-07T21:17:53.101Z,11.68
2023-01-07T21:20:19.701Z,13.20
2023-01-07T21:22:47.723Z,9.60
2023-01-07T21:25:15.488Z,9.25
2023-01-07T21:27:42.522Z,8.07
2023-01-07T21:30:14.376Z,12.45
2023-01-07T21:32:41.706Z,13.27
2023-01-07T21:35:08.931Z,8.73
2023-01-07T21:37:35.511Z,11.55
2023-01-07T21:40:02.003Z,12.02
2023-01-07T21:42:28.460Z,16.63
2023-01-07T21:44:54.942Z,13.85
2023-01-07T21:47:21.415Z,16.20
2023-01-07T21:49:49.680Z,16.95
2023-01-07T21:52:16.176Z,13.82
2023-01-07T21:54:42.748Z,6.85
2023-01-07T21:57:09.272Z,15.18
2023-01-07T21:59:37.368Z,11.63
2023-01-07T22:02:04.029Z,10.57
2023-01-07T22:04:30.638Z,24.23
2023-01-07T22:06:57.441Z,16.27
2023-01-07T22:09:27.385Z,33.60
2023-01-07T22:11:53.991Z,124.10
2023-01-07T22:14:20.749Z,27.25
2023-01-07T22:16:49.168Z,18.40
2023-01-07T22:19:15.829Z,33.55
2023-01-07T22:21:42.354Z,17.40
2023-01-07T22:24:09.368Z,14.60
2023-01-07T22:26:36.369Z,19.50
2023-01-07T22:29:06.240Z,13.73
2023-01-07T22:31:33.597Z,16.40
2023-01-07T22:34:00.148Z,13.00
2023-01-07T22:36:30.565Z,20.48
2023-01-07T22:38:59.133Z,12.02
2023-01-07T22:41:27.129Z,17.25
2023-01-07T22:43:53.628Z,17.35
2023-01-07T22:49:27.780Z,19.85
2023-01-07T22:51:54.405Z,11.90
2023-01-07T22:54:20.951Z,9.13
2023-01-07T22:56:48.006Z,8.60
2023-01-07T22:59:14.490Z,9.88
2023-01-07T23:01:41.031Z,10.85
2023-01-07T23:04:07.651Z,14.43
2023-01-07T23:06:34.216Z,14.48
2023-01-07T23:09:00.711Z,11.88
2023-01-07T23:11:45.611Z,9.52
2023-01-07T23:14:12.136Z,19.90
2023-01-07T23:16:40.527Z,14.02
2023-01-07T23:19:07.067Z,19.38
2023-01-07T23:21:33.558Z,10.95
2023-01-07T23:24:00.478Z,15.32
2023-01-07T23:26:27.016Z,14.52
2023-01-07T23:28:53.478Z,12.05
2023-01-07T23:31:20.111Z,10.30
2023-01-07T23:33:46.686Z,10.93
2023-01-07T23:36:13.161Z,12.07
2023-01-07T23:38:39.656Z,18.90
2023-01-07T23:41:07.178Z,14.65
2023-01-07T23:43:34.416Z,11.35
2023-01-07T23:46:01.645Z,16.23
2023-01-07T23:48:28.971Z,19.23
2023-01-07T23:50:56.147Z,17.17
2023-01-07T23:53:23.100Z,21.63
2023-01-07T23:55:50.528Z,10.27
2023-01-07T23:58:17.017Z,23.42
